Time;durP1;ratioP1;P1;durP2;ratioP2;P2;SDS_P1;SDS_P2;PMS_P1;PMS_P2;Temp;Humidity;BMP_temperature;BMP_pressure;BME280_temperature;BME280_humidity;BME280_pressure;Samples;Min_cycle;Max_cycle;Signal;HPM_P1;HPM_P2
2021/08/30 00:00:51;;;;;;;17.20;15.40;;;18.80;99.90;;;;;;2080172;28;20086;-69
2021/08/30 00:01:52;;;;;;;20.35;17.33;;;18.80;99.90;;;;;;2079803;28;20079;-69
2021/08/30 00:02:52;;;;;;;20.73;16.15;;;18.80;99.90;;;;;;2082637;28;20048;-69
2021/08/30 00:03:53;;;;;;;17.95;15.05;;;18.80;99.90;;;;;;2087251;28;20040;-69
2021/08/30 00:04:54;;;;;;;19.75;15.77;;;18.80;99.90;;;;;;2081297;28;20041;-69
2021/08/30 00:05:54;;;;;;;16.77;14.95;;;18.80;99.90;;;;;;2080467;28;20473;-70
2021/08/30 00:06:55;;;;;;;18.25;15.65;;;18.80;99.90;;;;;;2080850;28;20056;-69
2021/08/30 00:07:56;;;;;;;18.15;15.15;;;18.80;99.90;;;;;;2083325;28;20025;-69
2021/08/30 00:08:56;;;;;;;17.50;15.65;;;18.80;99.90;;;;;;2079969;28;20113;-69
2021/08/30 00:09:57;;;;;;;16.85;15.10;;;18.80;99.90;;;;;;2080023;28;20362;-69
2021/08/30 00:10:57;;;;;;;19.30;16.25;;;18.80;99.90;;;;;;2080071;28;20030;-69
2021/08/30 00:11:58;;;;;;;17.10;15.40;;;18.80;99.90;;;;;;2085461;28;20732;-69
2021/08/30 00:12:58;;;;;;;18.52;16.45;;;18.80;99.90;;;;;;2082816;28;20033;-69
2021/08/30 00:13:59;;;;;;;17.67;15.55;;;18.80;99.90;;;;;;2079779;28;20017;-69
2021/08/30 00:14:59;;;;;;;17.90;16.05;;;18.80;99.90;;;;;;2079515;28;20462;-69
2021/08/30 00:16:00;;;;;;;17.67;15.85;;;18.80;99.90;;;;;;2080782;28;20029;-70
2021/08/30 00:17:00;;;;;;;23.02;16.95;;;18.80;99.90;;;;;;2079968;28;20033;-70
2021/08/30 00:18:01;;;;;;;20.05;15.73;;;18.80;99.90;;;;;;2079306;28;20025;-70
2021/08/30 00:19:02;;;;;;;17.25;15.52;;;18.80;99.90;;;;;;2078889;28;20033;-70
2021/08/30 00:20:05;;;;;;;19.67;15.95;;;18.80;99.90;;;;;;2080267;28;20111;-70
2021/08/30 00:21:06;;;;;;;17.63;15.90;;;18.80;99.90;;;;;;2083614;28;20040;-70
2021/08/30 00:22:06;;;;;;;18.35;16.30;;;18.80;99.90;;;;;;2079379;28;20035;-70
2021/08/30 00:23:07;;;;;;;18.95;16.95;;;18.80;99.90;;;;;;2081913;28;20029;-70
2021/08/30 00:24:08;;;;;;;18.27;15.93;;;18.80;99.90;;;;;;2085820;28;20032;-70
2021/08/30 00:25:09;;;;;;;18.70;15.88;;;18.70;99.90;;;;;;2087851;28;20028;-70
2021/08/30 00:26:10;;;;;;;17.67;15.93;;;18.70;99.90;;;;;;2087025;28;20021;-70
2021/08/30 00:27:10;;;;;;;17.25;15.40;;;18.80;99.90;;;;;;2090443;28;20029;-69
2021/08/30 00:28:11;;;;;;;18.60;15.80;;;18.70;99.90;;;;;;2080062;28;20056;-69
2021/08/30 00:29:11;;;;;;;22.00;15.68;;;18.70;99.90;;;;;;2079817;28;20831;-70
2021/08/30 00:30:13;;;;;;;18.45;15.95;;;18.80;99.90;;;;;;2079922;28;20025;-69
2021/08/30 00:31:13;;;;;;;18.75;16.88;;;18.80;99.90;;;;;;2080274;28;20104;-69
2021/08/30 00:32:14;;;;;;;18.98;16.95;;;18.70;99.90;;;;;;2079112;28;20022;-69
2021/08/30 00:33:14;;;;;;;20.40;16.85;;;18.80;99.90;;;;;;2081318;28;20014;-69
2021/08/30 00:34:15;;;;;;;16.67;15.00;;;18.70;99.90;;;;;;2079562;28;20143;-69
2021/08/30 00:35:16;;;;;;;22.38;17.75;;;18.70;99.90;;;;;;2079653;28;20022;-69
2021/08/30 00:36:17;;;;;;;19.80;17.20;;;18.80;99.90;;;;;;2079602;28;20029;-69
2021/08/30 00:37:17;;;;;;;20.70;17.70;;;18.70;99.90;;;;;;2080066;28;20026;-70
2021/08/30 00:38:18;;;;;;;23.77;16.25;;;18.70;99.90;;;;;;2079783;28;20478;-70
2021/08/30 00:39:23;;;;;;;19.83;17.25;;;18.70;99.90;;;;;;2080209;28;20159;-69
2021/08/30 00:40:23;;;;;;;18.23;16.40;;;18.70;99.90;;;;;;2084575;28;20025;-69
2021/08/30 00:41:25;;;;;;;20.48;16.98;;;18.70;99.90;;;;;;2087870;28;20095;-69
2021/08/30 00:42:27;;;;;;;17.45;15.65;;;18.70;99.90;;;;;;2079936;28;20040;-69
2021/08/30 00:43:28;;;;;;;17.98;16.15;;;18.80;99.90;;;;;;2079547;28;20031;-69
2021/08/30 00:44:28;;;;;;;16.10;14.40;;;18.70;99.90;;;;;;2079845;28;20033;-69
2021/08/30 00:45:30;;;;;;;19.83;15.63;;;18.70;99.90;;;;;;2085589;28;20032;-69
2021/08/30 00:46:30;;;;;;;18.33;16.33;;;18.70;99.90;;;;;;2085085;28;20033;-70
2021/08/30 00:47:31;;;;;;;19.10;16.70;;;18.70;99.90;;;;;;2080131;28;20761;-69
2021/08/30 00:48:31;;;;;;;18.55;16.65;;;18.70;99.90;;;;;;2079609;28;20052;-70
2021/08/30 00:49:32;;;;;;;18.63;16.67;;;18.70;99.90;;;;;;2080343;28;20619;-70
2021/08/30 00:50:33;;;;;;;18.05;16.38;;;18.70;99.90;;;;;;2087729;28;20333;-69
2021/08/30 00:51:33;;;;;;;20.05;16.63;;;18.70;99.90;;;;;;2082139;28;20458;-69
2021/08/30 00:52:34;;;;;;;18.27;16.27;;;18.70;99.90;;;;;;2079391;28;20109;-69
2021/08/30 00:53:35;;;;;;;16.38;14.68;;;18.70;99.90;;;;;;2079745;28;20197;-70
2021/08/30 00:54:35;;;;;;;18.60;15.98;;;18.70;99.90;;;;;;2084134;28;20524;-70
2021/08/30 00:55:36;;;;;;;21.60;16.50;;;18.70;99.90;;;;;;2085773;28;20108;-69
2021/08/30 00:56:37;;;;;;;17.85;15.95;;;18.70;99.90;;;;;;2081849;28;20029;-69
2021/08/30 00:57:38;;;;;;;17.98;15.77;;;18.70;99.90;;;;;;2079797;28;20018;-70
2021/08/30 00:58:40;;;;;;;19.58;16.20;;;18.70;99.90;;;;;;2079778;28;20025;-70
2021/08/30 00:59:42;;;;;;;17.75;15.85;;;18.70;99.90;;;;;;2081364;28;20053;-70
2021/08/30 01:00:43;;;;;;;17.45;15.38;;;18.70;99.90;;;;;;2080249;28;20029;-69
2021/08/30 01:01:44;;;;;;;17.42;15.60;;;18.70;99.90;;;;;;2086719;28;20017;-70
2021/08/30 01:02:46;;;;;;;18.73;15.68;;;18.70;99.90;;;;;;2083729;28;20030;-70
2021/08/30 01:03:48;;;;;;;17.70;15.73;;;18.60;99.90;;;;;;2084005;28;20052;-70
2021/08/30 01:04:49;;;;;;;17.73;15.77;;;18.60;99.90;;;;;;2079261;28;20033;-69
2021/08/30 01:05:54;;;;;;;20.15;14.80;;;18.60;99.90;;;;;;2079634;28;20025;-69
2021/08/30 01:07:00;;;;;;;17.40;15.60;;;18.60;99.90;;;;;;2083717;28;20401;-70
2021/08/30 01:08:21;;;;;;;17.15;15.32;;;18.60;99.90;;;;;;2080805;28;20034;-69
2021/08/30 01:09:25;;;;;;;;;;;18.60;99.90;;;;;;2083364;28;20433;-70
2021/08/30 01:11:02;;;;;;;16.77;14.95;;;18.50;99.90;;;;;;2088139;28;19932;-70
2021/08/30 01:12:10;;;;;;;17.08;15.00;;;18.50;99.90;;;;;;2087768;28;20021;-70
2021/08/30 01:13:37;;;;;;;15.57;14.02;;;18.50;99.90;;;;;;2085539;28;20019;-70
2021/08/30 01:14:50;;;;;;;16.40;14.75;;;18.50;99.90;;;;;;2076205;28;20501;-70
2021/08/30 01:15:51;;;;;;;17.25;14.88;;;18.50;99.90;;;;;;2084469;28;20055;-69
2021/08/30 01:16:53;;;;;;;19.05;16.17;;;18.50;99.90;;;;;;2087562;28;20033;-69
2021/08/30 01:17:54;;;;;;;20.33;15.48;;;18.50;99.90;;;;;;2080357;28;20089;-69
2021/08/30 01:18:59;;;;;;;20.92;16.30;;;18.50;99.90;;;;;;2080979;28;20787;-69
2021/08/30 01:20:22;;;;;;;23.02;15.75;;;18.50;99.90;;;;;;2087814;28;20025;-70
2021/08/30 01:21:22;;;;;;;17.15;15.35;;;18.50;99.90;;;;;;2083445;28;20028;-70
2021/08/30 01:22:25;;;;;;;20.80;16.50;;;18.50;99.90;;;;;;2083517;28;20033;-69
2021/08/30 01:23:28;;;;;;;20.35;17.15;;;18.50;99.90;;;;;;2089786;28;20465;-69
2021/08/30 01:24:30;;;;;;;17.50;14.88;;;18.50;99.90;;;;;;2082535;28;20037;-69
2021/08/30 01:25:34;;;;;;;17.92;15.88;;;18.60;99.90;;;;;;2084197;28;20013;-70
2021/08/30 01:26:40;;;;;;;20.00;15.07;;;18.50;99.90;;;;;;2085701;28;20025;-70
2021/08/30 01:27:43;;;;;;;17.10;14.88;;;18.60;99.90;;;;;;2081068;28;20083;-70
2021/08/30 01:28:58;;;;;;;17.42;15.57;;;18.50;99.90;;;;;;2079546;28;20075;-69
2021/08/30 01:30:17;;;;;;;18.55;15.43;;;18.50;99.90;;;;;;2079119;28;20075;-70
2021/08/30 01:31:31;;;;;;;16.92;14.82;;;18.50;99.90;;;;;;2085725;28;20032;-70
2021/08/30 01:32:37;;;;;;;17.70;15.73;;;18.50;99.90;;;;;;2084176;28;20120;-69
2021/08/30 01:33:38;;;;;;;18.98;16.25;;;18.50;99.90;;;;;;2080131;28;20474;-70
2021/08/30 01:34:41;;;;;;;17.10;15.40;;;18.50;99.90;;;;;;2080126;28;20067;-69
2021/08/30 01:35:42;;;;;;;18.20;15.30;;;18.50;99.90;;;;;;2079115;28;20029;-69
2021/08/30 01:36:45;;;;;;;17.13;15.32;;;18.50;99.90;;;;;;2082625;28;20071;-69
2021/08/30 01:37:48;;;;;;;17.13;15.45;;;18.50;99.90;;;;;;2084237;28;20048;-70
2021/08/30 01:38:49;;;;;;;17.48;15.35;;;18.50;99.90;;;;;;2079276;28;20482;-70
2021/08/30 01:39:51;;;;;;;16.65;14.93;;;18.50;99.90;;;;;;2079026;28;20044;-70
2021/08/30 01:40:51;;;;;;;18.23;14.88;;;18.50;99.90;;;;;;2079217;28;20033;-70
2021/08/30 01:41:52;;;;;;;16.83;15.07;;;18.50;99.90;;;;;;2086015;28;20108;-70
2021/08/30 01:42:54;;;;;;;18.13;15.75;;;18.50;99.90;;;;;;2080803;28;20067;-69
2021/08/30 01:43:56;;;;;;;18.67;15.77;;;18.50;99.90;;;;;;2079756;28;20026;-69
2021/08/30 01:44:58;;;;;;;19.00;15.50;;;18.50;99.90;;;;;;2079577;28;20052;-70
2021/08/30 01:45:59;;;;;;;19.27;14.80;;;18.50;99.90;;;;;;2080291;28;20029;-70
2021/08/30 01:47:01;;;;;;;17.25;15.50;;;18.50;99.90;;;;;;2085961;28;20045;-70
2021/08/30 01:48:04;;;;;;;22.48;17.02;;;18.50;99.90;;;;;;2084895;28;20559;-70
2021/08/30 01:49:06;;;;;;;20.42;15.38;;;18.50;99.90;;;;;;2082450;28;20052;-70
2021/08/30 01:50:08;;;;;;;17.83;15.88;;;18.50;99.90;;;;;;2086800;28;20021;-70
2021/08/30 01:51:08;;;;;;;16.73;14.80;;;18.50;99.90;;;;;;2086373;28;20389;-70
2021/08/30 01:52:09;;;;;;;17.70;15.30;;;18.50;99.90;;;;;;2079144;28;20047;-70
2021/08/30 01:53:10;;;;;;;17.30;15.50;;;18.50;99.90;;;;;;2079329;28;20018;-70
2021/08/30 01:54:12;;;;;;;20.15;15.77;;;18.50;99.90;;;;;;2079260;28;20029;-69
2021/08/30 01:56:21;;;;;;;17.30;15.27;;;18.50;99.90;;;;;;2079774;28;20029;-70
2021/08/30 01:57:23;;;;;;;19.83;15.65;;;18.50;99.90;;;;;;2079526;28;20559;-69
2021/08/30 02:00:51;;;;;;;18.75;15.02;;;18.40;99.90;;;;;;2096406;28;20086;-70
2021/08/30 02:01:52;;;;;;;16.13;14.48;;;18.40;99.90;;;;;;2080180;28;20037;-70
2021/08/30 02:02:52;;;;;;;20.02;15.32;;;18.40;99.90;;;;;;2080085;28;20025;-69
2021/08/30 02:03:53;;;;;;;18.70;15.95;;;18.50;99.90;;;;;;2081383;28;20029;-69
2021/08/30 02:04:54;;;;;;;17.75;15.85;;;18.40;99.90;;;;;;2080524;28;20474;-69
2021/08/30 02:06:04;;;;;;;17.33;15.52;;;18.40;99.90;;;;;;2080723;28;20068;-70
2021/08/30 02:07:06;;;;;;;17.38;15.57;;;18.40;99.90;;;;;;2080656;28;20060;-70
2021/08/30 02:08:06;;;;;;;20.05;14.88;;;18.40;99.90;;;;;;2082164;28;20034;-70
2021/08/30 02:09:07;;;;;;;19.33;15.38;;;18.40;99.90;;;;;;2080515;28;20061;-70
2021/08/30 02:10:08;;;;;;;19.42;16.05;;;18.40;99.90;;;;;;2093097;28;20025;-70
2021/08/30 02:11:13;;;;;;;17.15;15.18;;;18.40;99.90;;;;;;2088440;28;20382;-70
2021/08/30 02:12:14;;;;;;;20.95;16.63;;;18.40;99.90;;;;;;2080798;28;20092;-69
2021/08/30 02:13:16;;;;;;;17.48;15.68;;;18.50;99.90;;;;;;2084154;28;20595;-70
2021/08/30 02:14:16;;;;;;;17.88;15.60;;;18.40;99.90;;;;;;2083114;28;20021;-70
2021/08/30 02:15:17;;;;;;;17.45;15.60;;;18.40;99.90;;;;;;2085965;28;20103;-69
2021/08/30 02:16:17;;;;;;;18.35;16.30;;;18.40;99.90;;;;;;2083417;28;20082;-69
2021/08/30 02:17:29;;;;;;;21.48;16.42;;;18.40;99.90;;;;;;2084220;28;20037;-69
2021/08/30 02:18:54;;;;;;;17.52;14.52;;;18.40;99.90;;;;;;2086421;28;20033;-69
2021/08/30 02:20:02;;;;;;;16.92;15.18;;;18.40;99.90;;;;;;2080358;28;20030;-69
2021/08/30 02:21:40;;;;;;;18.13;15.60;;;18.30;99.90;;;;;;2082078;28;20057;-69
2021/08/30 02:22:43;;;;;;;18.95;15.00;;;18.40;99.90;;;;;;2082474;28;20155;-69
2021/08/30 02:24:04;;;;;;;17.20;15.38;;;18.30;99.90;;;;;;2080680;28;20424;-69
2021/08/30 02:25:11;;;;;;;18.48;16.17;;;18.30;99.90;;;;;;2079632;28;20076;-69
2021/08/30 02:26:17;;;;;;;15.82;14.13;;;18.30;99.90;;;;;;2081646;28;20493;-70
2021/08/30 02:27:25;;;;;;;26.45;15.48;;;18.30;99.90;;;;;;2080951;28;20176;-70
2021/08/30 02:28:26;;;;;;;17.92;15.98;;;18.30;99.90;;;;;;2086189;28;20025;-70
2021/08/30 02:29:32;;;;;;;19.05;16.08;;;18.30;99.90;;;;;;2080993;28;20469;-70
2021/08/30 02:30:36;;;;;;;17.35;15.32;;;18.30;99.90;;;;;;2080802;28;20032;-70
2021/08/30 02:31:38;;;;;;;18.02;14.40;;;18.30;99.90;;;;;;2080341;28;20018;-70
2021/08/30 02:32:41;;;;;;;17.30;15.50;;;18.30;99.90;;;;;;2082923;28;20041;-70
2021/08/30 02:33:43;;;;;;;17.75;14.30;;;18.30;99.90;;;;;;2081106;28;20029;-70
2021/08/30 02:34:50;;;;;;;16.90;15.05;;;18.30;99.90;;;;;;2087847;28;20040;-70
2021/08/30 02:35:51;;;;;;;17.65;14.38;;;18.40;99.90;;;;;;2081396;28;20105;-70
2021/08/30 02:36:53;;;;;;;15.43;13.93;;;18.40;99.90;;;;;;2087797;28;20048;-70
2021/08/30 02:37:55;;;;;;;20.40;16.08;;;18.40;99.90;;;;;;2082255;28;20013;-70
2021/08/30 02:38:57;;;;;;;19.25;16.05;;;18.40;99.90;;;;;;2082552;28;20061;-70
2021/08/30 02:40:00;;;;;;;19.98;16.33;;;18.40;99.90;;;;;;2081882;28;20124;-70
2021/08/30 02:41:02;;;;;;;17.40;14.80;;;18.40;99.90;;;;;;2082248;28;20045;-70
2021/08/30 02:42:05;;;;;;;15.38;13.75;;;18.40;99.90;;;;;;2081581;28;20021;-70
2021/08/30 02:43:06;;;;;;;16.23;14.43;;;18.40;99.90;;;;;;2082107;28;20021;-70
2021/08/30 02:44:07;;;;;;;23.15;16.60;;;18.40;99.90;;;;;;2089139;28;20025;-70
2021/08/30 02:45:10;;;;;;;15.77;13.85;;;18.40;99.90;;;;;;2086574;28;20053;-70
2021/08/30 02:46:12;;;;;;;15.65;14.10;;;18.40;99.90;;;;;;2084574;28;20025;-70
2021/08/30 02:47:17;;;;;;;17.70;15.10;;;18.40;99.90;;;;;;2088190;28;20087;-70
2021/08/30 02:48:19;;;;;;;15.98;14.30;;;18.40;99.90;;;;;;2086014;28;20052;-70
2021/08/30 02:49:19;;;;;;;17.88;15.38;;;18.40;99.90;;;;;;2082193;28;20044;-70
2021/08/30 02:50:22;;;;;;;16.63;14.48;;;18.40;99.90;;;;;;2089247;28;20029;-70
2021/08/30 02:51:24;;;;;;;20.70;16.25;;;18.40;99.90;;;;;;2084855;28;20017;-70
2021/08/30 02:52:26;;;;;;;19.55;16.48;;;18.40;99.90;;;;;;2081268;28;20021;-69
2021/08/30 02:53:28;;;;;;;18.15;15.85;;;18.30;99.90;;;;;;2081936;28;20084;-69
2021/08/30 02:54:29;;;;;;;16.55;14.85;;;18.30;99.90;;;;;;2081940;28;20381;-69
2021/08/30 02:55:29;;;;;;;17.15;15.27;;;18.40;99.90;;;;;;2082206;28;20159;-69
2021/08/30 02:56:31;;;;;;;19.77;15.60;;;18.30;99.90;;;;;;2087207;28;20025;-70
2021/08/30 02:57:34;;;;;;;19.85;14.93;;;18.30;99.90;;;;;;2098609;28;20024;-70
2021/08/30 02:58:35;;;;;;;19.67;15.43;;;18.30;99.90;;;;;;2087558;28;20107;-69
2021/08/30 02:59:36;;;;;;;17.33;15.20;;;18.30;99.90;;;;;;2086871;28;20033;-70
2021/08/30 03:00:36;;;;;;;17.38;15.45;;;18.30;99.90;;;;;;2081820;28;20030;-70
2021/08/30 03:01:38;;;;;;;19.05;16.52;;;18.30;99.90;;;;;;2080370;28;20079;-70
2021/08/30 03:02:38;;;;;;;17.27;15.57;;;18.30;99.90;;;;;;2080271;28;20068;-70
2021/08/30 03:03:40;;;;;;;18.42;16.50;;;18.30;99.90;;;;;;2089066;28;20025;-70
2021/08/30 03:04:41;;;;;;;17.00;15.32;;;18.30;99.90;;;;;;2084180;28;20036;-70
2021/08/30 03:05:43;;;;;;;17.33;15.55;;;18.30;99.90;;;;;;2080914;28;20033;-70
2021/08/30 03:06:44;;;;;;;18.25;16.40;;;18.30;99.90;;;;;;2088630;28;20020;-70
2021/08/30 03:07:46;;;;;;;17.33;15.38;;;18.30;99.90;;;;;;2090042;28;20045;-70
2021/08/30 03:08:47;;;;;;;19.30;15.80;;;18.30;99.90;;;;;;2083373;28;20112;-70
2021/08/30 03:09:47;;;;;;;18.30;16.38;;;18.30;99.90;;;;;;2080073;28;20037;-70
2021/08/30 03:10:48;;;;;;;18.73;16.55;;;18.30;99.90;;;;;;2080943;28;20021;-70
2021/08/30 03:11:51;;;;;;;18.58;16.40;;;18.30;99.90;;;;;;2079532;28;20053;-70
2021/08/30 03:12:54;;;;;;;17.48;15.65;;;18.30;99.90;;;;;;2080092;28;20030;-70
2021/08/30 03:13:57;;;;;;;16.73;15.00;;;18.30;99.90;;;;;;2083863;28;20104;-70
2021/08/30 03:15:03;;;;;;;19.00;16.20;;;18.30;99.90;;;;;;2085039;28;20449;-70
2021/08/30 03:16:04;;;;;;;20.77;16.30;;;18.30;99.90;;;;;;2088927;28;20769;-69
2021/08/30 03:17:09;;;;;;;16.83;15.02;;;18.30;99.90;;;;;;2087790;28;20024;-70
2021/08/30 03:18:12;;;;;;;17.15;15.35;;;18.30;99.90;;;;;;2081804;28;20733;-70
2021/08/30 03:19:14;;;;;;;16.85;15.05;;;18.30;99.90;;;;;;2084226;28;20029;-70
2021/08/30 03:20:19;;;;;;;18.98;16.85;;;18.30;99.90;;;;;;2080767;28;20536;-70
2021/08/30 03:21:22;;;;;;;16.40;14.85;;;18.30;99.90;;;;;;2084941;28;20449;-70
2021/08/30 03:22:25;;;;;;;18.63;16.73;;;18.30;99.90;;;;;;2084629;28;20040;-70
2021/08/30 03:23:27;;;;;;;18.17;16.33;;;18.30;99.90;;;;;;2080099;28;20060;-70
2021/08/30 03:24:28;;;;;;;16.67;14.95;;;18.30;99.90;;;;;;2088636;28;20051;-69
2021/08/30 03:25:32;;;;;;;18.77;15.50;;;18.30;99.90;;;;;;2086267;28;20080;-70
2021/08/30 03:26:34;;;;;;;17.35;15.57;;;18.30;99.90;;;;;;2092050;28;20027;-70
2021/08/30 03:27:35;;;;;;;19.50;17.38;;;18.30;99.90;;;;;;2083714;28;20114;-70
2021/08/30 03:28:36;;;;;;;19.70;16.83;;;18.30;99.90;;;;;;2083831;28;20106;-69
2021/08/30 03:29:40;;;;;;;19.20;16.42;;;18.30;99.90;;;;;;2080701;28;20059;-69
2021/08/30 03:30:41;;;;;;;19.67;17.05;;;18.30;99.90;;;;;;2079735;28;20033;-69
2021/08/30 03:31:42;;;;;;;20.85;17.15;;;18.30;99.90;;;;;;2077571;28;20033;-69
2021/08/30 03:32:44;;;;;;;20.15;17.45;;;18.30;99.90;;;;;;2079243;28;20542;-69
2021/08/30 03:33:46;;;;;;;19.60;17.60;;;18.30;99.90;;;;;;2080583;28;20026;-69
2021/08/30 03:34:48;;;;;;;17.98;14.50;;;18.30;99.90;;;;;;2080471;28;20029;-69
2021/08/30 03:35:52;;;;;;;18.52;16.60;;;18.30;99.90;;;;;;2087491;28;20032;-70
2021/08/30 03:36:53;;;;;;;18.52;16.58;;;18.30;99.90;;;;;;2089189;28;20476;-70
2021/08/30 03:37:56;;;;;;;19.48;17.38;;;18.30;99.90;;;;;;2081407;28;20116;-70
2021/08/30 03:38:58;;;;;;;18.45;16.55;;;18.30;99.90;;;;;;2080581;28;20097;-70
2021/08/30 03:40:00;;;;;;;20.38;18.27;;;18.30;99.90;;;;;;2080681;28;20041;-70
2021/08/30 03:41:02;;;;;;;23.30;18.10;;;18.30;99.90;;;;;;2081605;28;20068;-70
2021/08/30 03:42:03;;;;;;;20.60;17.92;;;18.30;99.90;;;;;;2082661;28;20409;-70
2021/08/30 03:43:05;;;;;;;19.17;17.02;;;18.30;99.90;;;;;;2079836;28;20021;-70
2021/08/30 03:44:09;;;;;;;20.02;17.85;;;18.30;99.90;;;;;;2079688;28;20060;-70
2021/08/30 03:45:12;;;;;;;20.48;17.58;;;18.30;99.90;;;;;;2082761;28;20018;-70
2021/08/30 03:46:13;;;;;;;20.02;17.92;;;18.30;99.90;;;;;;2083338;28;20028;-70
2021/08/30 03:47:13;;;;;;;18.77;16.83;;;18.30;99.90;;;;;;2080115;28;20025;-70
2021/08/30 03:48:15;;;;;;;19.95;17.92;;;18.30;99.90;;;;;;2081420;28;20067;-70
2021/08/30 03:49:16;;;;;;;21.85;18.27;;;18.20;99.90;;;;;;2087684;28;20033;-69
2021/08/30 03:50:17;;;;;;;19.77;17.70;;;18.20;99.90;;;;;;2089003;28;20060;-69
2021/08/30 03:51:18;;;;;;;19.35;17.17;;;18.30;99.90;;;;;;2085062;28;20535;-69
2021/08/30 03:52:19;;;;;;;25.42;19.52;;;18.20;99.90;;;;;;2080488;28;20568;-69
2021/08/30 03:53:22;;;;;;;24.95;19.77;;;18.20;99.90;;;;;;2079758;28;20018;-69
2021/08/30 03:54:22;;;;;;;20.35;17.90;;;18.20;99.90;;;;;;2080356;28;20018;-69
2021/08/30 03:55:23;;;;;;;20.17;18.02;;;18.20;99.90;;;;;;2080422;28;20028;-69
2021/08/30 03:56:27;;;;;;;19.75;17.75;;;18.20;99.90;;;;;;2080883;28;20462;-69
2021/08/30 03:57:28;;;;;;;19.83;17.55;;;18.20;99.90;;;;;;2080196;28;20030;-69
2021/08/30 03:58:30;;;;;;;21.45;18.17;;;18.10;99.90;;;;;;2084535;28;20052;-69
2021/08/30 03:59:35;;;;;;;20.10;17.15;;;18.20;99.90;;;;;;2086190;28;20107;-69
2021/08/30 04:00:37;;;;;;;20.90;17.50;;;18.20;99.90;;;;;;2080791;28;20452;-69
2021/08/30 04:01:42;;;;;;;18.13;15.77;;;18.10;99.90;;;;;;2080354;28;20482;-69
2021/08/30 04:02:44;;;;;;;24.33;19.67;;;18.20;99.90;;;;;;2079757;28;20042;-69
2021/08/30 04:03:48;;;;;;;20.52;17.88;;;18.20;99.90;;;;;;2079787;28;20030;-69
2021/08/30 04:04:49;;;;;;;22.77;17.33;;;18.20;99.90;;;;;;2080960;28;20800;-69
2021/08/30 04:05:51;;;;;;;20.80;18.33;;;18.20;99.90;;;;;;2080171;28;20032;-69
2021/08/30 04:06:54;;;;;;;20.52;18.42;;;18.20;99.90;;;;;;2080251;28;20025;-70
2021/08/30 04:07:59;;;;;;;21.00;18.58;;;18.20;99.90;;;;;;2080069;28;20021;-70
2021/08/30 04:09:00;;;;;;;21.45;18.15;;;18.20;99.90;;;;;;2086729;28;20032;-70
2021/08/30 04:10:01;;;;;;;19.10;17.05;;;18.20;99.90;;;;;;2080352;28;20066;-70
2021/08/30 04:11:03;;;;;;;19.17;17.20;;;18.10;99.90;;;;;;2081425;28;20514;-70
2021/08/30 04:12:04;;;;;;;22.77;18.38;;;18.20;99.90;;;;;;2080894;28;20084;-70
2021/08/30 04:13:05;;;;;;;20.27;18.30;;;18.20;99.90;;;;;;2082390;28;20480;-70
2021/08/30 04:14:07;;;;;;;25.75;20.00;;;18.20;99.90;;;;;;2079991;28;20416;-70
2021/08/30 04:15:08;;;;;;;22.60;19.50;;;18.20;99.90;;;;;;2088217;28;20100;-70
2021/08/30 04:16:09;;;;;;;21.30;19.15;;;18.20;99.90;;;;;;2087822;28;20025;-70
2021/08/30 04:17:09;;;;;;;22.45;19.52;;;18.20;99.90;;;;;;2084311;28;20401;-70
2021/08/30 04:18:10;;;;;;;18.77;16.88;;;18.20;99.90;;;;;;2088232;28;20108;-70
2021/08/30 04:19:11;;;;;;;20.40;18.15;;;18.10;99.90;;;;;;2095418;28;20720;-70
2021/08/30 04:20:12;;;;;;;21.00;18.75;;;18.10;99.90;;;;;;2092605;28;20021;-70
2021/08/30 04:21:12;;;;;;;22.10;17.40;;;18.20;99.90;;;;;;2084503;28;20056;-70
2021/08/30 04:22:13;;;;;;;20.45;18.33;;;18.20;99.90;;;;;;2089948;28;20017;-70
2021/08/30 04:23:13;;;;;;;20.58;18.38;;;18.20;99.90;;;;;;2079935;28;20040;-70
2021/08/30 04:24:14;;;;;;;23.75;18.83;;;18.20;99.90;;;;;;2080691;28;20022;-70
2021/08/30 04:25:15;;;;;;;25.05;19.30;;;18.10;99.90;;;;;;2083020;28;20086;-70
2021/08/30 04:26:15;;;;;;;20.55;18.45;;;18.20;99.90;;;;;;2085745;28;20041;-70
2021/08/30 04:27:16;;;;;;;23.75;18.95;;;18.20;99.90;;;;;;2081053;28;20369;-70
2021/08/30 04:28:16;;;;;;;24.23;19.58;;;18.10;99.90;;;;;;2090207;28;20128;-70
2021/08/30 04:29:17;;;;;;;21.40;19.10;;;18.10;99.90;;;;;;2086276;28;20043;-69
2021/08/30 04:30:17;;;;;;;21.90;19.48;;;18.10;99.90;;;;;;2081341;28;21434;-70
2021/08/30 04:31:18;;;;;;;22.10;17.40;;;18.10;99.90;;;;;;2085760;28;20025;-70
2021/08/30 04:32:19;;;;;;;21.65;18.65;;;18.20;99.90;;;;;;2085421;28;20036;-69
2021/08/30 04:33:22;;;;;;;21.15;18.92;;;18.20;99.90;;;;;;2083582;28;20075;-70
2021/08/30 04:34:24;;;;;;;20.27;18.13;;;18.20;99.90;;;;;;2083321;28;20083;-70
2021/08/30 04:35:25;;;;;;;21.38;19.10;;;18.10;99.90;;;;;;2087738;28;20017;-70
2021/08/30 04:36:26;;;;;;;20.55;18.50;;;18.20;99.90;;;;;;2083733;28;20064;-70
2021/08/30 04:37:26;;;;;;;21.63;19.23;;;18.10;99.90;;;;;;2094073;28;20746;-69
2021/08/30 04:38:27;;;;;;;23.02;18.73;;;18.10;99.90;;;;;;2087024;28;20017;-70
2021/08/30 04:39:27;;;;;;;20.58;17.25;;;18.10;99.90;;;;;;2081824;28;20037;-70
2021/08/30 04:40:28;;;;;;;20.15;18.10;;;18.10;99.90;;;;;;2080106;28;20041;-70
2021/08/30 04:41:29;;;;;;;24.10;19.10;;;18.10;99.90;;;;;;2084074;28;20043;-70
2021/08/30 04:42:30;;;;;;;21.17;18.98;;;18.10;99.90;;;;;;2088315;28;20033;-70
2021/08/30 04:43:31;;;;;;;20.02;16.67;;;18.10;99.90;;;;;;2082689;28;20488;-70
2021/08/30 04:44:32;;;;;;;23.75;18.95;;;18.10;99.90;;;;;;2080122;28;20216;-70
2021/08/30 04:45:33;;;;;;;21.00;18.95;;;18.10;99.90;;;;;;2095341;28;20127;-70
2021/08/30 04:46:33;;;;;;;21.90;19.70;;;18.10;99.90;;;;;;2084746;28;20037;-69
2021/08/30 04:47:34;;;;;;;20.83;18.73;;;18.10;99.90;;;;;;2095630;28;20028;-70
2021/08/30 04:48:35;;;;;;;18.27;16.05;;;18.10;99.90;;;;;;2089032;28;20044;-70
2021/08/30 04:49:38;;;;;;;22.20;19.02;;;18.10;99.90;;;;;;2087714;28;20408;-70
2021/08/30 04:50:38;;;;;;;23.80;19.58;;;18.10;99.90;;;;;;2096658;28;20032;-70
2021/08/30 04:51:39;;;;;;;22.67;20.27;;;18.10;99.90;;;;;;2086511;28;20533;-70
2021/08/30 04:52:39;;;;;;;21.73;19.55;;;18.10;99.90;;;;;;2086488;28;20029;-70
2021/08/30 04:53:40;;;;;;;22.52;20.15;;;18.10;99.90;;;;;;2079878;28;20504;-70
2021/08/30 04:54:40;;;;;;;21.67;19.60;;;18.10;99.90;;;;;;2081162;28;20037;-70
2021/08/30 04:55:42;;;;;;;22.30;20.10;;;18.10;99.90;;;;;;2082732;28;20025;-70
2021/08/30 04:56:42;;;;;;;22.17;19.27;;;18.10;99.90;;;;;;2087701;28;20035;-70
2021/08/30 04:57:43;;;;;;;21.30;19.10;;;18.10;99.90;;;;;;2086350;28;20028;-70
2021/08/30 04:58:43;;;;;;;20.13;17.55;;;18.10;99.90;;;;;;2079982;28;20055;-70
2021/08/30 04:59:44;;;;;;;21.35;19.25;;;18.10;99.90;;;;;;2080932;28;20033;-70
2021/08/30 05:00:44;;;;;;;23.90;20.27;;;18.10;99.90;;;;;;2096350;28;20496;-70
2021/08/30 05:01:45;;;;;;;18.63;16.83;;;18.10;99.90;;;;;;2082848;28;20021;-70
2021/08/30 05:02:46;;;;;;;22.00;19.65;;;18.10;99.90;;;;;;2081891;28;20815;-70
2021/08/30 05:03:46;;;;;;;21.67;19.27;;;18.20;99.90;;;;;;2095276;28;20086;-70
2021/08/30 05:04:47;;;;;;;23.40;19.58;;;18.10;99.90;;;;;;2083617;28;20045;-70
2021/08/30 05:05:47;;;;;;;26.25;20.33;;;18.20;99.90;;;;;;2093759;28;20561;-70
2021/08/30 05:06:48;;;;;;;21.38;19.27;;;18.10;99.90;;;;;;2082620;28;20033;-70
2021/08/30 05:07:48;;;;;;;23.67;19.45;;;18.20;99.90;;;;;;2086215;28;20025;-70
2021/08/30 05:08:49;;;;;;;21.92;19.73;;;18.20;99.90;;;;;;2087511;28;20477;-70
2021/08/30 05:09:49;;;;;;;22.58;19.65;;;18.10;99.90;;;;;;2082239;28;20148;-70
2021/08/30 05:10:50;;;;;;;22.40;20.02;;;18.20;99.90;;;;;;2088399;28;20033;-70
2021/08/30 05:11:50;;;;;;;22.85;20.15;;;18.20;99.90;;;;;;2088031;28;20024;-70
2021/08/30 05:12:51;;;;;;;23.80;20.33;;;18.20;99.90;;;;;;2085435;28;20022;-70
2021/08/30 05:13:51;;;;;;;22.35;19.40;;;18.20;99.90;;;;;;2081476;28;20041;-70
2021/08/30 05:14:53;;;;;;;23.88;20.60;;;18.20;99.90;;;;;;2081765;28;20022;-70
2021/08/30 05:15:54;;;;;;;20.48;18.27;;;18.10;99.90;;;;;;2084033;28;20080;-70
2021/08/30 05:16:54;;;;;;;22.88;20.50;;;18.20;99.90;;;;;;2086697;28;20079;-69
2021/08/30 05:17:55;;;;;;;22.70;20.20;;;18.20;99.90;;;;;;2083217;28;20025;-70
2021/08/30 05:18:55;;;;;;;23.17;20.77;;;18.20;99.90;;;;;;2082773;28;20371;-70
2021/08/30 05:19:57;;;;;;;22.00;19.63;;;18.10;99.90;;;;;;2084290;28;20056;-70
2021/08/30 05:20:57;;;;;;;23.45;20.70;;;18.20;99.90;;;;;;2083293;28;20013;-70